sensor_id;sensor_type;location;lat;lon;timestamp;pressure;altitude;pressure_sealevel;temperature;humidity
22580;BME280;11456;47.030;15.396;2024-02-21T00:01:18;98489.69;;;2.86;100.00
22580;BME280;11456;47.030;15.396;2024-02-21T00:03:46;98493.78;;;2.76;100.00
22580;BME280;11456;47.030;15.396;2024-02-21T00:06:13;98482.78;;;2.82;100.00
22580;BME280;11456;47.030;15.396;2024-02-21T00:08:40;98478.97;;;3.19;100.00
22580;BME280;11456;47.030;15.396;2024-02-21T00:11:07;98481.13;;;3.12;100.00
22580;BME280;11456;47.030;15.396;2024-02-21T00:13:34;98471.72;;;2.90;100.00
22580;BME280;11456;47.030;15.396;2024-02-21T00:16:01;98489.31;;;2.61;100.00
22580;BME280;11456;47.030;15.396;2024-02-21T00:18:28;98481.09;;;2.81;100.00
22580;BME280;11456;47.030;15.396;2024-02-21T00:20:56;98482.06;;;2.47;100.00
22580;BME280;11456;47.030;15.396;2024-02-21T00:23:23;98483.84;;;2.14;100.00
22580;BME280;11456;47.030;15.396;2024-02-21T00:25:49;98483.34;;;2.40;100.00
22580;BME280;11456;47.030;15.396;2024-02-21T00:28:16;98481.72;;;2.53;100.00
22580;BME280;11456;47.030;15.396;2024-02-21T00:30:43;98487.50;;;2.28;100.00
22580;BME280;11456;47.030;15.396;2024-02-21T00:33:10;98483.91;;;2.29;100.00
22580;BME280;11456;47.030;15.396;2024-02-21T00:35:37;98472.84;;;4.08;100.00
22580;BME280;11456;47.030;15.396;2024-02-21T00:38:04;98473.38;;;3.23;100.00
22580;BME280;11456;47.030;15.396;2024-02-21T00:40:31;98463.94;;;2.87;100.00
22580;BME280;11456;47.030;15.396;2024-02-21T00:42:58;98475.88;;;2.47;100.00
22580;BME280;11456;47.030;15.396;2024-02-21T00:45:25;98480.47;;;2.60;100.00
22580;BME280;11456;47.030;15.396;2024-02-21T00:47:52;98470.94;;;2.72;100.00
22580;BME280;11456;47.030;15.396;2024-02-21T00:50:19;98480.41;;;2.77;100.00
22580;BME280;11456;47.030;15.396;2024-02-21T00:52:45;98477.09;;;2.57;100.00
22580;BME280;11456;47.030;15.396;2024-02-21T00:55:12;98470.81;;;2.75;100.00
22580;BME280;11456;47.030;15.396;2024-02-21T00:57:39;98470.84;;;2.58;100.00
22580;BME280;11456;47.030;15.396;2024-02-21T01:00:06;98471.97;;;2.54;100.00
22580;BME280;11456;47.030;15.396;2024-02-21T01:02:34;98470.91;;;2.40;100.00
22580;BME280;11456;47.030;15.396;2024-02-21T01:05:02;98467.34;;;2.73;100.00
22580;BME280;11456;47.030;15.396;2024-02-21T01:07:29;98461.16;;;2.88;100.00
22580;BME280;11456;47.030;15.396;2024-02-21T01:09:55;98461.47;;;2.99;100.00
22580;BME280;11456;47.030;15.396;2024-02-21T01:12:22;98462.53;;;2.95;100.00
22580;BME280;11456;47.030;15.396;2024-02-21T01:14:49;98462.13;;;2.87;100.00
22580;BME280;11456;47.030;15.396;2024-02-21T01:17:16;98455.00;;;3.03;100.00
22580;BME280;11456;47.030;15.396;2024-02-21T01:19:42;98452.38;;;3.49;100.00
22580;BME280;11456;47.030;15.396;2024-02-21T01:22:09;98456.47;;;3.09;100.00
22580;BME280;11456;47.030;15.396;2024-02-21T01:24:36;98447.97;;;3.02;100.00
22580;BME280;11456;47.030;15.396;2024-02-21T01:27:03;98453.59;;;3.28;100.00
22580;BME280;11456;47.030;15.396;2024-02-21T01:29:29;98445.09;;;3.37;100.00
22580;BME280;11456;47.030;15.396;2024-02-21T01:31:56;98448.72;;;3.36;100.00
22580;BME280;11456;47.030;15.396;2024-02-21T01:34:23;98447.06;;;3.49;100.00
22580;BME280;11456;47.030;15.396;2024-02-21T01:36:50;98441.66;;;3.50;100.00
22580;BME280;11456;47.030;15.396;2024-02-21T01:39:17;98451.34;;;3.51;100.00
22580;BME280;11456;47.030;15.396;2024-02-21T01:41:44;98449.94;;;3.60;100.00
22580;BME280;11456;47.030;15.396;2024-02-21T01:44:10;98447.41;;;3.43;100.00
22580;BME280;11456;47.030;15.396;2024-02-21T01:46:37;98441.06;;;3.45;100.00
22580;BME280;11456;47.030;15.396;2024-02-21T01:49:04;98449.56;;;3.66;100.00
22580;BME280;11456;47.030;15.396;2024-02-21T01:51:31;98445.81;;;3.70;100.00
22580;BME280;11456;47.030;15.396;2024-02-21T01:53:59;98439.75;;;3.82;100.00
22580;BME280;11456;47.030;15.396;2024-02-21T01:56:26;98439.34;;;3.74;100.00
22580;BME280;11456;47.030;15.396;2024-02-21T01:58:54;98436.88;;;3.85;100.00
22580;BME280;11456;47.030;15.396;2024-02-21T02:01:22;98431.38;;;3.58;100.00
22580;BME280;11456;47.030;15.396;2024-02-21T02:03:49;98427.28;;;3.53;100.00
22580;BME280;11456;47.030;15.396;2024-02-21T02:06:16;98429.81;;;3.70;100.00
22580;BME280;11456;47.030;15.396;2024-02-21T02:08:43;98428.63;;;3.60;100.00
22580;BME280;11456;47.030;15.396;2024-02-21T02:11:13;98423.69;;;3.98;100.00
22580;BME280;11456;47.030;15.396;2024-02-21T02:13:40;98427.78;;;3.89;100.00
22580;BME280;11456;47.030;15.396;2024-02-21T02:16:07;98430.28;;;4.07;100.00
22580;BME280;11456;47.030;15.396;2024-02-21T02:18:33;98422.44;;;4.03;100.00
22580;BME280;11456;47.030;15.396;2024-02-21T02:21:00;98422.41;;;4.48;100.00
22580;BME280;11456;47.030;15.396;2024-02-21T02:23:31;98417.91;;;4.20;100.00
22580;BME280;11456;47.030;15.396;2024-02-21T02:25:58;98423.03;;;4.09;100.00
22580;BME280;11456;47.030;15.396;2024-02-21T02:28:26;98421.88;;;4.55;100.00
22580;BME280;11456;47.030;15.396;2024-02-21T02:30:53;98416.00;;;4.22;100.00
22580;BME280;11456;47.030;15.396;2024-02-21T02:33:20;98425.34;;;4.15;100.00
22580;BME280;11456;47.030;15.396;2024-02-21T02:35:47;98408.53;;;3.98;100.00
22580;BME280;11456;47.030;15.396;2024-02-21T02:38:13;98406.06;;;3.81;100.00
22580;BME280;11456;47.030;15.396;2024-02-21T02:40:41;98408.97;;;4.21;100.00
22580;BME280;11456;47.030;15.396;2024-02-21T02:43:09;98405.53;;;4.19;100.00
22580;BME280;11456;47.030;15.396;2024-02-21T02:45:35;98400.81;;;5.99;100.00
22580;BME280;11456;47.030;15.396;2024-02-21T02:48:02;98392.28;;;4.60;100.00
22580;BME280;11456;47.030;15.396;2024-02-21T02:50:30;98392.38;;;4.44;100.00
22580;BME280;11456;47.030;15.396;2024-02-21T02:52:57;98391.03;;;4.51;100.00
22580;BME280;11456;47.030;15.396;2024-02-21T02:55:24;98392.38;;;5.65;100.00
22580;BME280;11456;47.030;15.396;2024-02-21T02:57:52;98396.91;;;4.70;100.00
22580;BME280;11456;47.030;15.396;2024-02-21T03:00:19;98395.53;;;5.45;100.00
22580;BME280;11456;47.030;15.396;2024-02-21T03:02:46;98395.19;;;4.83;100.00
22580;BME280;11456;47.030;15.396;2024-02-21T03:05:16;98390.56;;;4.44;100.00
22580;BME280;11456;47.030;15.396;2024-02-21T03:07:44;98390.66;;;4.57;100.00
22580;BME280;11456;47.030;15.396;2024-02-21T03:10:12;98396.75;;;4.17;100.00
22580;BME280;11456;47.030;15.396;2024-02-21T03:12:39;98393.91;;;4.06;100.00
22580;BME280;11456;47.030;15.396;2024-02-21T03:15:06;98388.38;;;4.23;100.00
22580;BME280;11456;47.030;15.396;2024-02-21T03:17:33;98383.81;;;4.25;100.00
22580;BME280;11456;47.030;15.396;2024-02-21T03:20:03;98378.88;;;4.47;100.00
22580;BME280;11456;47.030;15.396;2024-02-21T03:22:39;98389.72;;;4.30;100.00
22580;BME280;11456;47.030;15.396;2024-02-21T03:25:10;98384.78;;;4.10;100.00
22580;BME280;11456;47.030;15.396;2024-02-21T03:27:38;98385.34;;;4.29;100.00
22580;BME280;11456;47.030;15.396;2024-02-21T03:30:05;98375.59;;;4.42;100.00
22580;BME280;11456;47.030;15.396;2024-02-21T03:32:32;98378.41;;;4.40;100.00
22580;BME280;11456;47.030;15.396;2024-02-21T03:34:58;98384.66;;;4.54;100.00
22580;BME280;11456;47.030;15.396;2024-02-21T03:37:25;98386.09;;;4.45;100.00
22580;BME280;11456;47.030;15.396;2024-02-21T03:39:52;98394.66;;;4.36;100.00
22580;BME280;11456;47.030;15.396;2024-02-21T03:42:19;98388.19;;;4.26;100.00
22580;BME280;11456;47.030;15.396;2024-02-21T03:44:46;98391.50;;;4.29;100.00
22580;BME280;11456;47.030;15.396;2024-02-21T03:47:12;98388.00;;;4.43;100.00
22580;BME280;11456;47.030;15.396;2024-02-21T03:49:39;98384.09;;;4.20;100.00
22580;BME280;11456;47.030;15.396;2024-02-21T03:52:06;98377.31;;;4.43;100.00
22580;BME280;11456;47.030;15.396;2024-02-21T03:54:33;98378.69;;;4.22;100.00
22580;BME280;11456;47.030;15.396;2024-02-21T03:56:59;98380.38;;;4.23;100.00
22580;BME280;11456;47.030;15.396;2024-02-21T03:59:26;98373.06;;;4.12;100.00
22580;BME280;11456;47.030;15.396;2024-02-21T04:01:53;98376.09;;;3.92;100.00
22580;BME280;11456;47.030;15.396;2024-02-21T04:04:20;98364.94;;;3.85;100.00
22580;BME280;11456;47.030;15.396;2024-02-21T04:06:51;98370.84;;;4.04;100.00
22580;BME280;11456;47.030;15.396;2024-02-21T04:09:18;98363.16;;;4.00;100.00
22580;BME280;11456;47.030;15.396;2024-02-21T04:11:44;98367.25;;;4.20;100.00
22580;BME280;11456;47.030;15.396;2024-02-21T04:14:12;98366.34;;;5.03;100.00
22580;BME280;11456;47.030;15.396;2024-02-21T04:16:38;98372.84;;;4.43;100.00
22580;BME280;11456;47.030;15.396;2024-02-21T04:19:06;98367.25;;;4.34;100.00
22580;BME280;11456;47.030;15.396;2024-02-21T04:21:33;98369.19;;;5.27;100.00
22580;BME280;11456;47.030;15.396;2024-02-21T04:24:00;98369.53;;;4.54;100.00
22580;BME280;11456;47.030;15.396;2024-02-21T04:26:28;98361.53;;;4.26;100.00
22580;BME280;11456;47.030;15.396;2024-02-21T04:28:55;98364.19;;;3.97;100.00
22580;BME280;11456;47.030;15.396;2024-02-21T04:31:22;98362.69;;;4.22;100.00
22580;BME280;11456;47.030;15.396;2024-02-21T04:33:48;98371.91;;;3.88;100.00
22580;BME280;11456;47.030;15.396;2024-02-21T04:36:15;98365.44;;;3.92;100.00
22580;BME280;11456;47.030;15.396;2024-02-21T04:38:42;98367.25;;;3.77;100.00
22580;BME280;11456;47.030;15.396;2024-02-21T04:41:09;98365.88;;;3.84;100.00
22580;BME280;11456;47.030;15.396;2024-02-21T04:43:35;98365.88;;;3.84;100.00
22580;BME280;11456;47.030;15.396;2024-02-21T04:46:02;98367.84;;;3.96;100.00
22580;BME280;11456;47.030;15.396;2024-02-21T04:48:29;98365.34;;;3.93;100.00
22580;BME280;11456;47.030;15.396;2024-02-21T04:50:56;98363.59;;;3.78;100.00
22580;BME280;11456;47.030;15.396;2024-02-21T04:53:22;98352.41;;;4.01;100.00
22580;BME280;11456;47.030;15.396;2024-02-21T04:55:49;98355.91;;;4.16;100.00
22580;BME280;11456;47.030;15.396;2024-02-21T04:58:16;98347.72;;;4.19;100.00
22580;BME280;11456;47.030;15.396;2024-02-21T05:00:42;98344.78;;;3.95;100.00
22580;BME280;11456;47.030;15.396;2024-02-21T05:03:09;98359.44;;;3.88;100.00
22580;BME280;11456;47.030;15.396;2024-02-21T05:05:36;98353.72;;;3.94;100.00
22580;BME280;11456;47.030;15.396;2024-02-21T05:08:03;98355.97;;;3.72;100.00
22580;BME280;11456;47.030;15.396;2024-02-21T05:10:30;98360.94;;;3.64;100.00
22580;BME280;11456;47.030;15.396;2024-02-21T05:12:57;98360.56;;;3.70;100.00
22580;BME280;11456;47.030;15.396;2024-02-21T05:15:25;98356.66;;;3.76;100.00
22580;BME280;11456;47.030;15.396;2024-02-21T05:17:52;98359.81;;;3.82;100.00
22580;BME280;11456;47.030;15.396;2024-02-21T05:20:19;98367.13;;;3.65;100.00
22580;BME280;11456;47.030;15.396;2024-02-21T05:22:46;98356.91;;;3.57;100.00
22580;BME280;11456;47.030;15.396;2024-02-21T05:25:13;98349.22;;;3.67;100.00
22580;BME280;11456;47.030;15.396;2024-02-21T05:27:40;98350.50;;;3.89;100.00
22580;BME280;11456;47.030;15.396;2024-02-21T05:30:07;98348.22;;;3.83;100.00
22580;BME280;11456;47.030;15.396;2024-02-21T05:32:33;98347.31;;;3.69;100.00
22580;BME280;11456;47.030;15.396;2024-02-21T05:35:00;98340.81;;;3.58;100.00
22580;BME280;11456;47.030;15.396;2024-02-21T05:37:27;98339.78;;;3.61;100.00
22580;BME280;11456;47.030;15.396;2024-02-21T05:39:54;98339.69;;;3.48;100.00
22580;BME280;11456;47.030;15.396;2024-02-21T05:42:20;98340.53;;;3.49;100.00
22580;BME280;11456;47.030;15.396;2024-02-21T05:44:47;98338.16;;;3.58;100.00
22580;BME280;11456;47.030;15.396;2024-02-21T05:47:14;98341.09;;;3.54;100.00
22580;BME280;11456;47.030;15.396;2024-02-21T05:49:42;98347.75;;;3.47;100.00
22580;BME280;11456;47.030;15.396;2024-02-21T05:52:09;98352.44;;;3.28;100.00
22580;BME280;11456;47.030;15.396;2024-02-21T05:54:38;98354.97;;;3.15;100.00
22580;BME280;11456;47.030;15.396;2024-02-21T05:57:07;98344.56;;;3.26;100.00
22580;BME280;11456;47.030;15.396;2024-02-21T05:59:34;98346.13;;;3.14;100.00
22580;BME280;11456;47.030;15.396;2024-02-21T06:02:03;98344.94;;;3.20;100.00
22580;BME280;11456;47.030;15.396;2024-02-21T06:04:30;98343.72;;;3.26;100.00
22580;BME280;11456;47.030;15.396;2024-02-21T06:06:57;98340.66;;;3.17;100.00
22580;BME280;11456;47.030;15.396;2024-02-21T06:09:24;98341.97;;;2.95;100.00
22580;BME280;11456;47.030;15.396;2024-02-21T06:11:51;98337.56;;;3.09;100.00
22580;BME280;11456;47.030;15.396;2024-02-21T06:14:18;98337.41;;;3.12;100.00
22580;BME280;11456;47.030;15.396;2024-02-21T06:16:44;98336.19;;;3.02;100.00
22580;BME280;11456;47.030;15.396;2024-02-21T06:19:11;98333.78;;;3.13;100.00
22580;BME280;11456;47.030;15.396;2024-02-21T06:21:38;98331.50;;;3.21;100.00
22580;BME280;11456;47.030;15.396;2024-02-21T06:24:05;98330.84;;;3.18;100.00
22580;BME280;11456;47.030;15.396;2024-02-21T06:26:35;98324.53;;;3.05;100.00
22580;BME280;11456;47.030;15.396;2024-02-21T06:29:03;98326.16;;;3.37;100.00
22580;BME280;11456;47.030;15.396;2024-02-21T06:31:30;98324.38;;;3.52;100.00
22580;BME280;11456;47.030;15.396;2024-02-21T06:33:58;98334.09;;;3.67;100.00
22580;BME280;11456;47.030;15.396;2024-02-21T06:36:25;98332.59;;;3.77;100.00
22580;BME280;11456;47.030;15.396;2024-02-21T06:38:52;98332.97;;;3.99;100.00
22580;BME280;11456;47.030;15.396;2024-02-21T06:41:18;98331.16;;;4.69;100.00
22580;BME280;11456;47.030;15.396;2024-02-21T06:43:46;98342.03;;;5.20;100.00
22580;BME280;11456;47.030;15.396;2024-02-21T06:46:26;98346.19;;;5.76;100.00
22580;BME280;11456;47.030;15.396;2024-02-21T06:48:56;98344.31;;;6.16;100.00
22580;BME280;11456;47.030;15.396;2024-02-21T06:51:24;98354.16;;;5.90;100.00
22580;BME280;11456;47.030;15.396;2024-02-21T06:53:52;98365.72;;;6.03;100.00
22580;BME280;11456;47.030;15.396;2024-02-21T06:56:19;98349.47;;;6.32;100.00
22580;BME280;11456;47.030;15.396;2024-02-21T06:58:46;98355.78;;;5.93;100.00
22580;BME280;11456;47.030;15.396;2024-02-21T07:01:12;98362.66;;;5.70;100.00
22580;BME280;11456;47.030;15.396;2024-02-21T07:03:39;98360.38;;;6.03;100.00
22580;BME280;11456;47.030;15.396;2024-02-21T07:06:06;98356.53;;;6.33;100.00
22580;BME280;11456;47.030;15.396;2024-02-21T07:08:33;98354.16;;;6.03;100.00
22580;BME280;11456;47.030;15.396;2024-02-21T07:11:00;98356.84;;;6.03;100.00
22580;BME280;11456;47.030;15.396;2024-02-21T07:13:26;98350.50;;;6.42;100.00
22580;BME280;11456;47.030;15.396;2024-02-21T07:15:53;98352.84;;;6.47;100.00
22580;BME280;11456;47.030;15.396;2024-02-21T07:18:20;98355.75;;;6.43;100.00
22580;BME280;11456;47.030;15.396;2024-02-21T07:20:47;98347.50;;;6.83;100.00
22580;BME280;11456;47.030;15.396;2024-02-21T07:23:14;98345.34;;;6.88;100.00
22580;BME280;11456;47.030;15.396;2024-02-21T07:25:40;98348.28;;;6.72;100.00
22580;BME280;11456;47.030;15.396;2024-02-21T07:28:07;98339.19;;;6.75;100.00
22580;BME280;11456;47.030;15.396;2024-02-21T07:30:34;98343.16;;;6.69;100.00
22580;BME280;11456;47.030;15.396;2024-02-21T07:33:02;98339.69;;;6.80;99.18
22580;BME280;11456;47.030;15.396;2024-02-21T07:35:28;98333.63;;;6.78;99.55
22580;BME280;11456;47.030;15.396;2024-02-21T07:37:55;98333.63;;;6.78;100.00
22580;BME280;11456;47.030;15.396;2024-02-21T07:40:22;98339.38;;;7.08;98.58
22580;BME280;11456;47.030;15.396;2024-02-21T07:42:50;98338.56;;;6.95;96.84
22580;BME280;11456;47.030;15.396;2024-02-21T07:45:18;98333.97;;;6.97;97.87
22580;BME280;11456;47.030;15.396;2024-02-21T07:47:45;98333.66;;;7.37;91.24
22580;BME280;11456;47.030;15.396;2024-02-21T07:50:12;98332.09;;;7.10;97.41
22580;BME280;11456;47.030;15.396;2024-02-21T07:52:39;98324.53;;;7.74;99.66
22580;BME280;11456;47.030;15.396;2024-02-21T07:55:06;98330.28;;;7.92;91.55
22580;BME280;11456;47.030;15.396;2024-02-21T07:57:33;98319.72;;;8.13;88.48
22580;BME280;11456;47.030;15.396;2024-02-21T07:59:59;98316.50;;;7.96;92.27
22580;BME280;11456;47.030;15.396;2024-02-21T08:02:26;98314.41;;;7.89;91.63
22580;BME280;11456;47.030;15.396;2024-02-21T08:04:53;98306.28;;;7.55;88.57
22580;BME280;11456;47.030;15.396;2024-02-21T08:07:19;98307.91;;;7.69;87.65
22580;BME280;11456;47.030;15.396;2024-02-21T08:09:46;98301.88;;;8.00;87.62
22580;BME280;11456;47.030;15.396;2024-02-21T08:12:13;98306.69;;;8.41;80.93
22580;BME280;11456;47.030;15.396;2024-02-21T08:14:39;98301.38;;;9.28;81.97
22580;BME280;11456;47.030;15.396;2024-02-21T08:17:07;98295.78;;;10.54;71.44
22580;BME280;11456;47.030;15.396;2024-02-21T08:19:34;98303.63;;;10.76;69.86
22580;BME280;11456;47.030;15.396;2024-02-21T08:22:01;98306.44;;;9.62;66.62
22580;BME280;11456;47.030;15.396;2024-02-21T08:24:27;98306.03;;;9.88;71.32
22580;BME280;11456;47.030;15.396;2024-02-21T08:26:54;98295.81;;;10.23;66.14
22580;BME280;11456;47.030;15.396;2024-02-21T08:29:21;98298.06;;;10.07;65.42
22580;BME280;11456;47.030;15.396;2024-02-21T08:31:48;98300.44;;;10.52;60.20
22580;BME280;11456;47.030;15.396;2024-02-21T08:34:15;98298.84;;;10.79;59.18
22580;BME280;11456;47.030;15.396;2024-02-21T08:36:42;98296.47;;;9.95;62.31
22580;BME280;11456;47.030;15.396;2024-02-21T08:39:09;98293.38;;;9.58;66.27
22580;BME280;11456;47.030;15.396;2024-02-21T08:41:36;98295.28;;;9.46;68.96
22580;BME280;11456;47.030;15.396;2024-02-21T08:44:27;98287.09;;;9.89;65.67
22580;BME280;11456;47.030;15.396;2024-02-21T08:46:54;98278.16;;;11.09;59.94
22580;BME280;11456;47.030;15.396;2024-02-21T08:49:21;98284.16;;;11.32;55.26
22580;BME280;11456;47.030;15.396;2024-02-21T08:51:48;98290.38;;;11.80;55.08
22580;BME280;11456;47.030;15.396;2024-02-21T08:54:15;98286.00;;;11.31;53.91
22580;BME280;11456;47.030;15.396;2024-02-21T08:56:42;98287.28;;;11.37;55.30
22580;BME280;11456;47.030;15.396;2024-02-21T08:59:08;98288.38;;;11.05;53.87
22580;BME280;11456;47.030;15.396;2024-02-21T09:01:35;98278.31;;;11.26;53.49
22580;BME280;11456;47.030;15.396;2024-02-21T09:04:03;98277.63;;;11.44;54.12
22580;BME280;11456;47.030;15.396;2024-02-21T09:06:30;98272.91;;;11.26;52.95
22580;BME280;11456;47.030;15.396;2024-02-21T09:08:59;98271.97;;;10.59;55.22
22580;BME280;11456;47.030;15.396;2024-02-21T09:11:25;98279.72;;;10.42;55.63
22580;BME280;11456;47.030;15.396;2024-02-21T09:13:54;98270.06;;;10.80;52.18
22580;BME280;11456;47.030;15.396;2024-02-21T09:16:21;98270.44;;;10.66;51.51
22580;BME280;11456;47.030;15.396;2024-02-21T09:18:49;98271.22;;;11.06;50.71
22580;BME280;11456;47.030;15.396;2024-02-21T09:21:16;98261.03;;;11.19;47.96
22580;BME280;11456;47.030;15.396;2024-02-21T09:23:44;98253.41;;;12.10;50.37
22580;BME280;11456;47.030;15.396;2024-02-21T09:26:11;98254.81;;;12.68;46.22
22580;BME280;11456;47.030;15.396;2024-02-21T09:28:45;98252.75;;;11.69;49.58
22580;BME280;11456;47.030;15.396;2024-02-21T09:31:12;98250.63;;;11.63;48.75
22580;BME280;11456;47.030;15.396;2024-02-21T09:33:38;98253.47;;;11.81;49.18
22580;BME280;11456;47.030;15.396;2024-02-21T09:36:06;98249.94;;;12.54;46.06
22580;BME280;11456;47.030;15.396;2024-02-21T09:38:32;98246.38;;;10.93;50.46
22580;BME280;11456;47.030;15.396;2024-02-21T09:41:04;98246.69;;;11.19;50.07
22580;BME280;11456;47.030;15.396;2024-02-21T09:43:36;98247.03;;;11.72;49.74
22580;BME280;11456;47.030;15.396;2024-02-21T09:46:05;98236.88;;;12.13;46.65
22580;BME280;11456;47.030;15.396;2024-02-21T09:48:46;98236.41;;;11.90;48.47
22580;BME280;11456;47.030;15.396;2024-02-21T09:51:19;98230.97;;;11.99;47.80
22580;BME280;11456;47.030;15.396;2024-02-21T09:53:48;98227.63;;;11.59;48.13
22580;BME280;11456;47.030;15.396;2024-02-21T09:56:28;98232.78;;;11.23;49.69
22580;BME280;11456;47.030;15.396;2024-02-21T09:58:55;98232.47;;;11.26;46.91
22580;BME280;11456;47.030;15.396;2024-02-21T10:01:22;98236.72;;;11.58;47.01
22580;BME280;11456;47.030;15.396;2024-02-21T10:04:00;98230.28;;;11.88;47.49
22580;BME280;11456;47.030;15.396;2024-02-21T10:06:29;98232.19;;;12.42;46.66
22580;BME280;11456;47.030;15.396;2024-02-21T10:08:56;98227.06;;;11.46;47.64
22580;BME280;11456;47.030;15.396;2024-02-21T10:11:23;98230.63;;;10.79;47.81
22580;BME280;11456;47.030;15.396;2024-02-21T10:13:51;98222.41;;;11.29;47.26
22580;BME280;11456;47.030;15.396;2024-02-21T10:16:18;98228.50;;;12.43;44.48
22580;BME280;11456;47.030;15.396;2024-02-21T10:18:45;98221.09;;;11.71;44.36
22580;BME280;11456;47.030;15.396;2024-02-21T10:21:11;98225.94;;;11.58;45.60
22580;BME280;11456;47.030;15.396;2024-02-21T10:23:42;98218.47;;;11.98;44.46
22580;BME280;11456;47.030;15.396;2024-02-21T10:26:09;98212.78;;;11.92;44.37
22580;BME280;11456;47.030;15.396;2024-02-21T10:28:37;98206.47;;;12.11;44.67
22580;BME280;11456;47.030;15.396;2024-02-21T10:31:09;98207.25;;;12.75;42.65
22580;BME280;11456;47.030;15.396;2024-02-21T10:33:37;98204.16;;;12.53;43.76
22580;BME280;11456;47.030;15.396;2024-02-21T10:36:08;98195.00;;;13.78;40.48
22580;BME280;11456;47.030;15.396;2024-02-21T10:38:39;98189.22;;;14.32;40.06
22580;BME280;11456;47.030;15.396;2024-02-21T10:41:06;98184.16;;;13.78;40.53
22580;BME280;11456;47.030;15.396;2024-02-21T10:43:38;98182.47;;;13.77;40.67
22580;BME280;11456;47.030;15.396;2024-02-21T10:46:08;98175.47;;;13.05;42.64
22580;BME280;11456;47.030;15.396;2024-02-21T10:48:42;98164.97;;;13.37;40.35
22580;BME280;11456;47.030;15.396;2024-02-21T10:51:18;98162.44;;;13.18;42.07
22580;BME280;11456;47.030;15.396;2024-02-21T10:58:50;98144.19;;;15.38;38.50
22580;BME280;11456;47.030;15.396;2024-02-21T11:01:18;98140.28;;;15.24;38.78
22580;BME280;11456;47.030;15.396;2024-02-21T11:03:46;98131.44;;;14.66;40.42
22580;BME280;11456;47.030;15.396;2024-02-21T11:06:13;98126.19;;;15.45;37.84
22580;BME280;11456;47.030;15.396;2024-02-21T11:08:41;98130.81;;;15.53;39.44
22580;BME280;11456;47.030;15.396;2024-02-21T11:11:08;98128.59;;;15.08;39.80
22580;BME280;11456;47.030;15.396;2024-02-21T11:13:49;98112.16;;;16.05;37.22
22580;BME280;11456;47.030;15.396;2024-02-21T11:16:22;98112.00;;;16.07;36.83
22580;BME280;11456;47.030;15.396;2024-02-21T11:18:49;98102.97;;;15.27;37.92
22580;BME280;11456;47.030;15.396;2024-02-21T11:21:16;98099.53;;;14.43;39.13
22580;BME280;11456;47.030;15.396;2024-02-21T11:23:43;98103.94;;;16.21;37.18
22580;BME280;11456;47.030;15.396;2024-02-21T11:26:19;98101.28;;;16.44;35.89
22580;BME280;11456;47.030;15.396;2024-02-21T11:28:56;98091.13;;;14.95;37.35
22580;BME280;11456;47.030;15.396;2024-02-21T11:31:23;98082.25;;;15.66;36.33
22580;BME280;11456;47.030;15.396;2024-02-21T11:33:51;98078.44;;;15.83;36.66
22580;BME280;11456;47.030;15.396;2024-02-21T11:36:27;98068.53;;;16.07;35.45
22580;BME280;11456;47.030;15.396;2024-02-21T11:38:53;98067.16;;;16.02;34.96
22580;BME280;11456;47.030;15.396;2024-02-21T11:41:20;98059.28;;;15.77;35.98
22580;BME280;11456;47.030;15.396;2024-02-21T11:43:50;98052.75;;;15.39;36.04
22580;BME280;11456;47.030;15.396;2024-02-21T11:46:19;98047.63;;;15.68;35.02
22580;BME280;11456;47.030;15.396;2024-02-21T11:48:46;98044.31;;;15.89;34.57
22580;BME280;11456;47.030;15.396;2024-02-21T11:51:26;98043.81;;;15.85;34.85
22580;BME280;11456;47.030;15.396;2024-02-21T11:53:53;98037.81;;;15.43;35.21
22580;BME280;11456;47.030;15.396;2024-02-21T11:56:27;98017.56;;;14.90;36.21
22580;BME280;11456;47.030;15.396;2024-02-21T11:58:54;98013.81;;;14.99;36.82
22580;BME280;11456;47.030;15.396;2024-02-21T12:01:21;98005.13;;;15.36;36.05
22580;BME280;11456;47.030;15.396;2024-02-21T12:03:48;98006.06;;;14.72;37.51
22580;BME280;11456;47.030;15.396;2024-02-21T12:06:17;98008.06;;;14.86;38.18
22580;BME280;11456;47.030;15.396;2024-02-21T12:08:48;98005.56;;;15.48;36.53
22580;BME280;11456;47.030;15.396;2024-02-21T12:11:20;98003.19;;;13.99;38.53
22580;BME280;11456;47.030;15.396;2024-02-21T12:13:58;98003.66;;;14.93;37.26
22580;BME280;11456;47.030;15.396;2024-02-21T12:16:27;97992.00;;;15.48;36.73
22580;BME280;11456;47.030;15.396;2024-02-21T12:18:56;97996.22;;;15.67;35.33
22580;BME280;11456;47.030;15.396;2024-02-21T12:21:24;97999.25;;;14.84;37.60
22580;BME280;11456;47.030;15.396;2024-02-21T12:23:51;97985.38;;;14.55;38.44
22580;BME280;11456;47.030;15.396;2024-02-21T12:26:18;97979.63;;;14.66;36.84
22580;BME280;11456;47.030;15.396;2024-02-21T12:28:47;97981.91;;;14.12;37.86
22580;BME280;11456;47.030;15.396;2024-02-21T12:31:14;97974.94;;;13.51;39.81
22580;BME280;11456;47.030;15.396;2024-02-21T12:33:40;97968.31;;;13.96;40.78
22580;BME280;11456;47.030;15.396;2024-02-21T12:36:07;97964.59;;;13.97;39.49
22580;BME280;11456;47.030;15.396;2024-02-21T12:38:36;97957.91;;;14.33;39.28
22580;BME280;11456;47.030;15.396;2024-02-21T12:41:03;97957.06;;;15.37;37.59
22580;BME280;11456;47.030;15.396;2024-02-21T12:43:30;97947.59;;;15.41;36.97
22580;BME280;11456;47.030;15.396;2024-02-21T12:45:56;97943.44;;;16.68;34.95
22580;BME280;11456;47.030;15.396;2024-02-21T12:48:23;97936.91;;;16.32;34.46
22580;BME280;11456;47.030;15.396;2024-02-21T12:50:50;97940.31;;;17.09;32.82
22580;BME280;11456;47.030;15.396;2024-02-21T12:53:20;97941.84;;;15.36;35.18
22580;BME280;11456;47.030;15.396;2024-02-21T12:55:58;97944.78;;;15.65;34.11
22580;BME280;11456;47.030;15.396;2024-02-21T12:58:25;97935.22;;;16.31;33.97